Time;durP1;ratioP1;P1;durP2;ratioP2;P2;SDS_P1;SDS_P2;PMS_P1;PMS_P2;Temp;Humidity;BMP_temperature;BMP_pressure;BME280_temperature;BME280_humidity;BME280_pressure;Samples;Min_cycle;Max_cycle;Signal;HPM_P1;HPM_P2
2021/10/02 00:31:49;;;;;;;23.45;17.48;;;13.60;99.90;;;;;;4123804;28;20065;-76
2021/10/02 00:45:14;;;;;;;28.88;21.30;;;13.60;99.90;;;;;;4129521;28;20426;-76
2021/10/02 00:47:19;;;;;;;26.05;19.98;;;13.60;99.90;;;;;;4124668;28;20038;-76
2021/10/02 00:49:21;;;;;;;22.98;19.23;;;13.60;99.90;;;;;;4107477;28;20475;-75
2021/10/02 00:51:22;;;;;;;27.23;22.50;;;13.50;99.90;;;;;;4116285;28;20038;-76
2021/10/02 00:53:23;;;;;;;29.05;21.52;;;13.50;99.90;;;;;;4099065;28;20031;-76
2021/10/02 00:55:24;;;;;;;26.85;24.13;;;13.60;99.90;;;;;;4115462;28;20035;-76
2021/10/02 00:57:25;;;;;;;30.42;22.40;;;13.60;99.90;;;;;;4112949;28;20050;-76
2021/10/02 00:59:29;;;;;;;25.75;23.05;;;13.60;99.90;;;;;;4113957;28;20437;-75
2021/10/02 01:01:54;;;;;;;26.20;23.38;;;13.50;99.90;;;;;;4115188;28;20039;-76
2021/10/02 01:04:24;;;;;;;24.30;20.08;;;13.50;99.90;;;;;;4098250;28;20047;-76
2021/10/02 01:06:33;;;;;;;29.40;24.17;;;13.60;99.90;;;;;;4116666;28;20039;-76
2021/10/02 01:09:09;;;;;;;32.28;22.05;;;13.60;99.90;;;;;;4110625;28;20047;-76
2021/10/02 01:11:39;;;;;;;26.77;23.83;;;13.50;99.90;;;;;;4105579;28;20053;-76
2021/10/02 01:14:15;;;;;;;26.77;23.38;;;13.50;99.90;;;;;;4124544;28;20142;-76
2021/10/02 01:16:30;;;;;;;26.25;21.77;;;13.60;99.90;;;;;;4107605;28;20043;-76
2021/10/02 01:18:56;;;;;;;27.90;22.65;;;13.60;99.90;;;;;;4112110;28;20046;-75
2021/10/02 01:21:40;;;;;;;26.77;22.38;;;13.60;99.90;;;;;;4101354;28;20081;-75
2021/10/02 01:23:58;;;;;;;28.33;24.85;;;13.60;99.90;;;;;;4112755;28;20073;-76
2021/10/02 01:26:33;;;;;;;39.47;27.58;;;13.60;99.90;;;;;;4112277;28;20030;-76
2021/10/02 01:28:37;;;;;;;32.63;25.95;;;13.50;99.90;;;;;;4112013;28;20089;-76
2021/10/02 01:32:56;;;;;;;36.28;27.02;;;13.60;99.90;;;;;;4126427;28;20098;-76
2021/10/02 01:35:18;;;;;;;33.38;27.67;;;13.60;99.90;;;;;;4114295;28;20042;-76
2021/10/02 01:49:04;;;;;;;32.55;28.75;;;13.50;99.90;;;;;;4124251;28;20539;-76
2021/10/02 01:51:10;;;;;;;40.95;29.95;;;13.50;99.90;;;;;;4112457;28;20039;-76
2021/10/02 01:53:12;;;;;;;38.88;31.13;;;13.50;99.90;;;;;;4109581;28;20050;-76
2021/10/02 01:55:15;;;;;;;36.20;29.90;;;13.60;99.90;;;;;;4127296;28;20037;-76
2021/10/02 01:57:16;;;;;;;37.97;30.00;;;13.60;99.90;;;;;;4112757;28;20682;-76
2021/10/02 01:59:18;;;;;;;41.45;29.88;;;13.60;99.90;;;;;;4112849;28;20118;-76
2021/10/02 02:01:22;;;;;;;39.67;30.23;;;13.60;99.90;;;;;;4114449;28;20121;-76
2021/10/02 02:03:24;;;;;;;38.72;30.23;;;13.60;99.90;;;;;;4112953;28;20070;-76
2021/10/02 02:05:27;;;;;;;38.08;30.27;;;13.60;99.90;;;;;;4098126;28;20111;-76
2021/10/02 02:07:30;;;;;;;40.03;28.77;;;13.60;99.90;;;;;;4128295;28;20515;-76
2021/10/02 02:09:37;;;;;;;34.35;28.38;;;13.60;99.90;;;;;;4098067;28;20027;-76
2021/10/02 02:11:39;;;;;;;37.38;30.42;;;13.70;99.90;;;;;;4130870;28;20034;-76
2021/10/02 02:13:40;;;;;;;43.65;31.42;;;13.70;99.90;;;;;;4110652;28;20059;-76
2021/10/02 02:15:44;;;;;;;36.00;29.17;;;13.60;99.90;;;;;;4126894;28;20046;-76
2021/10/02 02:17:49;;;;;;;42.15;29.13;;;13.60;99.90;;;;;;4112452;28;20125;-76
2021/10/02 02:19:51;;;;;;;37.25;28.88;;;13.70;99.90;;;;;;4116299;28;20495;-75
2021/10/02 02:21:51;;;;;;;34.08;29.50;;;13.60;99.90;;;;;;4114421;28;20031;-75
2021/10/02 02:23:55;;;;;;;42.55;30.67;;;13.70;99.90;;;;;;4125545;28;20061;-76
2021/10/02 02:26:03;;;;;;;37.55;29.05;;;13.70;99.90;;;;;;4129060;28;20469;-76
2021/10/02 02:28:07;;;;;;;42.13;31.05;;;13.60;99.90;;;;;;4108849;28;20155;-76
2021/10/02 02:30:08;;;;;;;44.63;31.10;;;13.60;99.90;;;;;;4115839;28;20034;-76
2021/10/02 02:32:09;;;;;;;34.25;28.42;;;13.60;99.90;;;;;;4128360;28;20034;-76
2021/10/02 02:34:11;;;;;;;38.00;27.95;;;13.70;99.90;;;;;;4127096;28;20138;-76
2021/10/02 02:36:11;;;;;;;38.00;29.45;;;13.70;99.90;;;;;;4127236;28;20117;-76
2021/10/02 02:38:13;;;;;;;37.00;30.40;;;13.70;99.90;;;;;;4126091;28;20157;-76
2021/10/02 02:40:14;;;;;;;39.25;29.77;;;13.60;99.90;;;;;;4116854;28;20667;-76
2021/10/02 02:42:16;;;;;;;45.40;29.55;;;13.60;99.90;;;;;;4106517;28;20038;-76
2021/10/02 02:44:17;;;;;;;39.30;30.30;;;13.60;99.90;;;;;;4113024;28;20031;-76
2021/10/02 02:46:31;;;;;;;41.58;31.40;;;13.50;99.90;;;;;;4121880;28;20042;-76
2021/10/02 02:48:55;;;;;;;36.40;29.27;;;13.50;99.90;;;;;;4128425;28;20042;-76
2021/10/02 02:51:13;;;;;;;39.72;29.83;;;13.60;99.90;;;;;;4130046;28;20046;-76
2021/10/02 02:53:34;;;;;;;42.05;29.10;;;13.60;99.90;;;;;;4114012;28;20073;-76
2021/10/02 02:55:42;;;;;;;37.50;28.90;;;13.50;99.90;;;;;;4113920;28;20052;-76
2021/10/02 02:57:49;;;;;;;42.53;31.85;;;13.50;99.90;;;;;;4129078;28;20203;-76
2021/10/02 03:00:08;;;;;;;41.85;28.88;;;13.40;99.90;;;;;;4112528;28;20038;-76
2021/10/02 03:02:18;;;;;;;40.58;31.30;;;13.40;99.90;;;;;;4112698;28;20053;-75
2021/10/02 03:04:28;;;;;;;44.03;31.48;;;13.30;99.90;;;;;;4127996;28;20049;-76
2021/10/02 03:06:29;;;;;;;52.65;31.98;;;13.20;99.90;;;;;;4109784;28;20035;-76
2021/10/02 03:08:36;;;;;;;50.88;34.22;;;13.10;99.90;;;;;;4127599;28;20070;-76
2021/10/02 03:10:38;;;;;;;47.83;31.20;;;13.00;99.90;;;;;;4111909;28;20100;-75
2021/10/02 03:12:43;;;;;;;56.45;33.42;;;12.90;99.90;;;;;;4112583;28;20722;-77
2021/10/02 03:14:45;;;;;;;49.15;32.65;;;13.00;99.90;;;;;;4114402;28;20058;-76
2021/10/02 03:16:50;;;;;;;48.45;33.70;;;13.00;99.90;;;;;;4113314;28;20031;-76
2021/10/02 03:18:58;;;;;;;54.92;33.13;;;13.00;99.90;;;;;;4113847;28;20034;-75
2021/10/02 03:21:00;;;;;;;45.92;31.50;;;13.00;99.90;;;;;;4113770;28;20430;-75
2021/10/02 03:23:00;;;;;;;56.08;32.67;;;13.00;99.90;;;;;;4106621;28;20118;-75
2021/10/02 03:25:02;;;;;;;57.47;32.67;;;13.00;99.90;;;;;;4088747;28;20043;-75
2021/10/02 03:27:07;;;;;;;50.67;31.50;;;12.90;99.90;;;;;;4110470;28;20109;-75
2021/10/02 03:29:08;;;;;;;48.90;32.13;;;13.00;99.90;;;;;;4112454;28;20050;-75
2021/10/02 03:31:10;;;;;;;50.08;30.75;;;13.10;99.90;;;;;;4115828;28;20094;-75
2021/10/02 03:33:14;;;;;;;52.92;32.60;;;13.10;99.90;;;;;;4114008;28;20486;-75
2021/10/02 03:35:16;;;;;;;53.05;34.00;;;13.10;99.90;;;;;;4116086;28;20111;-75
2021/10/02 03:37:17;;;;;;;54.50;33.17;;;13.00;99.90;;;;;;4098823;28;20046;-76
2021/10/02 03:39:18;;;;;;;50.97;31.90;;;13.00;99.90;;;;;;4115236;28;20039;-76
2021/10/02 03:41:19;;;;;;;48.53;31.70;;;13.00;99.90;;;;;;4130210;28;20058;-76
2021/10/02 03:43:20;;;;;;;57.00;30.33;;;13.00;99.90;;;;;;4112911;28;20437;-76
2021/10/02 03:45:29;;;;;;;56.70;33.97;;;12.90;99.90;;;;;;4129986;28;20464;-76
2021/10/02 03:47:30;;;;;;;61.30;33.33;;;12.80;99.90;;;;;;4099538;28;20059;-75
2021/10/02 03:49:31;;;;;;;53.75;29.88;;;12.90;99.90;;;;;;4116200;28;20077;-76
2021/10/02 03:51:32;;;;;;;57.92;34.00;;;12.90;99.90;;;;;;4114923;28;20568;-76
2021/10/02 03:53:33;;;;;;;62.85;33.42;;;12.90;99.90;;;;;;4115294;28;20374;-75
2021/10/02 03:55:34;;;;;;;61.55;35.90;;;12.80;99.90;;;;;;4129578;28;20035;-76
2021/10/02 03:57:35;;;;;;;67.20;36.13;;;12.80;99.90;;;;;;4113655;28;20043;-76
2021/10/02 03:59:36;;;;;;;55.35;33.17;;;12.90;99.90;;;;;;4114950;28;20465;-76
2021/10/02 04:01:36;;;;;;;62.28;35.58;;;12.90;99.90;;;;;;4109951;28;20026;-76
2021/10/02 04:03:37;;;;;;;63.35;34.90;;;12.90;99.90;;;;;;4116499;28;20155;-75
2021/10/02 04:05:38;;;;;;;62.78;37.72;;;12.90;99.90;;;;;;4111331;28;20038;-76
2021/10/02 04:07:39;;;;;;;56.83;33.80;;;13.00;99.90;;;;;;4127954;28;20038;-76
2021/10/02 04:09:40;;;;;;;55.65;33.97;;;13.00;99.90;;;;;;4112624;28;20498;-76
2021/10/02 04:11:40;;;;;;;60.38;33.33;;;13.10;99.90;;;;;;4111367;28;20101;-75
2021/10/02 04:13:41;;;;;;;61.40;34.47;;;13.00;99.90;;;;;;4121762;28;20042;-76
2021/10/02 04:15:42;;;;;;;56.85;34.78;;;12.90;99.90;;;;;;4109941;28;20508;-76
2021/10/02 04:17:43;;;;;;;64.68;34.90;;;12.90;99.90;;;;;;4129441;28;20039;-76
2021/10/02 04:19:44;;;;;;;57.15;35.10;;;12.90;99.90;;;;;;4115109;28;20125;-76
2021/10/02 04:21:44;;;;;;;65.53;34.75;;;12.90;99.90;;;;;;4114043;28;20030;-76
2021/10/02 04:23:45;;;;;;;58.53;36.78;;;13.00;99.90;;;;;;4112048;28;20050;-76
2021/10/02 04:25:46;;;;;;;56.75;33.88;;;13.10;99.90;;;;;;4114838;28;20556;-76
2021/10/02 04:27:47;;;;;;;56.05;34.72;;;13.00;99.90;;;;;;4125787;28;20046;-75
2021/10/02 04:29:48;;;;;;;63.10;36.45;;;13.00;99.90;;;;;;4100600;28;20110;-75
2021/10/02 04:31:48;;;;;;;60.72;35.67;;;13.00;99.90;;;;;;4126207;28;20049;-76
2021/10/02 04:33:49;;;;;;;54.95;35.00;;;13.00;99.90;;;;;;4106822;28;20088;-75
2021/10/02 04:35:50;;;;;;;57.30;34.75;;;13.10;99.90;;;;;;4115859;28;20055;-75
2021/10/02 04:37:51;;;;;;;57.28;33.53;;;13.10;99.90;;;;;;4115405;28;20042;-76
2021/10/02 04:39:52;;;;;;;54.10;36.15;;;13.10;99.90;;;;;;4114983;28;20042;-76
2021/10/02 04:41:54;;;;;;;58.63;35.80;;;13.10;99.90;;;;;;4128776;28;20129;-76
2021/10/02 04:43:54;;;;;;;57.40;34.33;;;13.00;99.90;;;;;;4111296;28;20042;-76
2021/10/02 04:45:55;;;;;;;55.88;34.25;;;13.00;99.90;;;;;;4115196;28;20042;-76
2021/10/02 04:47:56;;;;;;;57.67;35.28;;;13.00;99.90;;;;;;4115913;28;20043;-76
2021/10/02 04:49:57;;;;;;;56.38;31.35;;;13.00;99.90;;;;;;4114980;28;20038;-76
2021/10/02 04:51:58;;;;;;;60.45;34.42;;;12.90;99.90;;;;;;4114230;28;20046;-76
2021/10/02 04:53:59;;;;;;;59.95;34.60;;;12.90;99.90;;;;;;4127608;28;20038;-76
2021/10/02 04:56:05;;;;;;;52.15;34.00;;;12.90;99.90;;;;;;4113430;28;20031;-76
2021/10/02 04:58:05;;;;;;;54.83;34.15;;;12.90;99.90;;;;;;4112828;28;20048;-76
2021/10/02 05:00:07;;;;;;;60.33;33.38;;;;;;;;;;4099860;28;20558;-76
2021/10/02 05:02:08;;;;;;;69.32;37.63;;;;;;;;;;4114487;28;20371;-76
2021/10/02 05:04:09;;;;;;;63.17;35.85;;;12.80;99.90;;;;;;4129161;28;20133;-76
2021/10/02 05:06:10;;;;;;;66.90;37.17;;;12.70;99.90;;;;;;4113146;28;20043;-76
2021/10/02 05:08:11;;;;;;;67.53;36.60;;;12.70;99.90;;;;;;4112678;28;20043;-76
2021/10/02 05:10:12;;;;;;;58.67;35.85;;;12.60;99.90;;;;;;4127077;28;20482;-76
2021/10/02 05:12:13;;;;;;;66.90;34.25;;;12.60;99.90;;;;;;4103921;28;20046;-76
2021/10/02 05:14:13;;;;;;;62.97;36.33;;;12.50;99.90;;;;;;4127964;28;20046;-76
2021/10/02 05:16:14;;;;;;;68.30;38.90;;;12.70;99.90;;;;;;4111979;28;20081;-76
2021/10/02 05:18:16;;;;;;;70.03;39.03;;;12.80;99.90;;;;;;4113969;28;20043;-77
2021/10/02 05:20:16;;;;;;;71.93;38.50;;;12.80;99.90;;;;;;4113643;28;20039;-76
2021/10/02 05:22:18;;;;;;;72.40;37.53;;;12.80;99.90;;;;;;4098327;28;20069;-77
2021/10/02 05:24:18;;;;;;;67.72;34.97;;;12.80;99.90;;;;;;4126057;28;20042;-76
2021/10/02 05:26:19;;;;;;;63.83;36.00;;;12.80;99.90;;;;;;4098614;28;20140;-75
2021/10/02 05:28:24;;;;;;;64.53;35.13;;;12.80;99.90;;;;;;4113546;28;20033;-76
2021/10/02 05:30:25;;;;;;;60.63;34.38;;;12.80;99.90;;;;;;4113905;28;20042;-76
2021/10/02 05:32:26;;;;;;;60.13;34.80;;;12.80;99.90;;;;;;4113010;28;20222;-76
2021/10/02 05:34:27;;;;;;;60.42;32.72;;;12.70;99.90;;;;;;4112650;28;20038;-76
2021/10/02 05:36:28;;;;;;;62.60;34.17;;;12.70;99.90;;;;;;4106280;28;20073;-75
2021/10/02 05:38:29;;;;;;;63.75;36.22;;;12.60;99.90;;;;;;4103216;28;20051;-75
2021/10/02 05:40:30;;;;;;;61.65;34.83;;;12.50;99.90;;;;;;4113381;28;20035;-76
2021/10/02 05:42:31;;;;;;;69.85;35.63;;;12.40;99.90;;;;;;4117529;28;20043;-75
2021/10/02 05:44:33;;;;;;;69.60;35.30;;;12.30;99.90;;;;;;4102113;28;20471;-76
2021/10/02 05:46:34;;;;;;;68.10;36.85;;;12.30;99.90;;;;;;4120840;28;20468;-76
2021/10/02 05:48:35;;;;;;;72.13;38.78;;;;;;;;;;4099381;28;20038;-76
2021/10/02 05:50:38;;;;;;;78.32;40.75;;;12.30;99.90;;;;;;4119560;28;20463;-76
2021/10/02 05:52:39;;;;;;;73.95;37.35;;;12.20;99.90;;;;;;4102195;28;20114;-76
2021/10/02 05:54:40;;;;;;;78.65;38.58;;;12.10;99.90;;;;;;4096110;28;20439;-76
2021/10/02 05:56:41;;;;;;;81.47;38.85;;;12.00;99.90;;;;;;4126554;28;20031;-76
2021/10/02 05:58:42;;;;;;;84.03;39.22;;;12.10;99.90;;;;;;4111307;28;20038;-76
2021/10/02 06:00:42;;;;;;;87.65;40.78;;;12.10;99.90;;;;;;4126119;28;20062;-76
2021/10/02 06:02:43;;;;;;;84.45;41.50;;;12.20;99.90;;;;;;4094744;28;20039;-76
2021/10/02 06:04:44;;;;;;;91.28;40.92;;;12.10;99.90;;;;;;4112841;28;20065;-76
2021/10/02 06:06:45;;;;;;;86.80;39.58;;;12.10;99.90;;;;;;4110806;28;20447;-76
2021/10/02 06:08:46;;;;;;;87.90;39.50;;;12.00;99.90;;;;;;4111297;28;20100;-76
2021/10/02 06:10:46;;;;;;;85.00;38.58;;;12.10;99.90;;;;;;4112167;28;20066;-76
2021/10/02 06:12:50;;;;;;;87.80;39.47;;;12.10;99.90;;;;;;4129349;28;20472;-76
2021/10/02 06:14:50;;;;;;;89.32;41.67;;;12.20;99.90;;;;;;4097228;28;20668;-76
2021/10/02 06:16:53;;;;;;;84.55;43.88;;;12.20;99.90;;;;;;4129009;28;20074;-76
2021/10/02 06:18:53;;;;;;;82.65;39.38;;;12.20;99.90;;;;;;4106305;28;20042;-76
2021/10/02 06:20:54;;;;;;;91.85;41.75;;;12.30;99.90;;;;;;4114182;28;20043;-76
2021/10/02 06:22:55;;;;;;;75.90;37.33;;;12.40;99.90;;;;;;4112685;28;20085;-76
2021/10/02 06:24:56;;;;;;;84.22;39.60;;;12.50;99.90;;;;;;4122847;28;20046;-76
2021/10/02 06:26:57;;;;;;;76.75;38.08;;;12.50;99.90;;;;;;4112906;28;20118;-76
2021/10/02 06:28:58;;;;;;;74.30;35.78;;;12.50;99.90;;;;;;4111483;28;20043;-76
2021/10/02 06:30:59;;;;;;;68.20;37.05;;;12.50;99.90;;;;;;4128032;28;20539;-76
2021/10/02 06:33:00;;;;;;;68.55;34.72;;;12.60;99.90;;;;;;4095538;28;20040;-75
2021/10/02 06:35:00;;;;;;;65.22;33.20;;;12.50;99.90;;;;;;4131370;28;20030;-75
2021/10/02 06:37:01;;;;;;;75.68;37.08;;;12.60;99.90;;;;;;4110840;28;20177;-75
2021/10/02 06:39:02;;;;;;;66.53;36.58;;;12.60;99.90;;;;;;4124681;28;20089;-75
2021/10/02 06:41:03;;;;;;;68.00;35.17;;;12.50;99.90;;;;;;4127648;28;20145;-76
2021/10/02 06:43:04;;;;;;;65.63;34.45;;;12.50;99.90;;;;;;4113942;28;20113;-74
2021/10/02 06:45:07;;;;;;;65.63;36.95;;;12.50;99.90;;;;;;4112844;28;20086;-75
2021/10/02 06:47:08;;;;;;;59.13;33.72;;;12.60;99.90;;;;;;4112798;28;20077;-75
2021/10/02 06:49:09;;;;;;;65.82;33.15;;;12.60;99.90;;;;;;4109002;28;20059;-75
2021/10/02 06:51:09;;;;;;;59.10;34.97;;;12.70;99.90;;;;;;4113846;28;20030;-76
2021/10/02 06:53:10;;;;;;;53.95;31.80;;;12.80;99.90;;;;;;4115195;28;20022;-76
2021/10/02 06:55:11;;;;;;;50.20;30.73;;;12.90;99.90;;;;;;4126168;28;20042;-75
2021/10/02 06:57:13;;;;;;;44.75;28.75;;;13.00;99.90;;;;;;4122079;28;20035;-76
2021/10/02 06:59:14;;;;;;;45.40;30.45;;;13.00;99.90;;;;;;4115450;28;20532;-76
2021/10/02 07:01:14;;;;;;;45.40;29.77;;;13.00;99.90;;;;;;4107722;28;20019;-76
2021/10/02 07:03:15;;;;;;;45.45;27.50;;;13.00;99.90;;;;;;4104912;28;20036;-76
2021/10/02 07:05:16;;;;;;;47.80;30.50;;;13.00;99.90;;;;;;4105143;28;20039;-76
2021/10/02 07:07:18;;;;;;;48.35;31.10;;;13.00;99.90;;;;;;4114382;28;20039;-76
2021/10/02 07:09:19;;;;;;;47.65;29.90;;;13.00;99.90;;;;;;4098733;28;20035;-76
2021/10/02 07:11:19;;;;;;;45.33;28.73;;;13.00;99.90;;;;;;4117953;28;20570;-76
2021/10/02 07:13:21;;;;;;;49.55;29.55;;;13.20;99.90;;;;;;4112781;28;20041;-77
2021/10/02 07:15:21;;;;;;;42.75;28.15;;;13.30;99.90;;;;;;4104519;28;20077;-76
2021/10/02 07:17:22;;;;;;;38.53;27.67;;;13.40;99.90;;;;;;4120192;28;20120;-76
2021/10/02 07:19:23;;;;;;;39.90;29.08;;;13.40;99.90;;;;;;4105836;28;20063;-78
2021/10/02 07:21:23;;;;;;;39.40;28.55;;;13.40;99.90;;;;;;4107488;28;20105;-76
2021/10/02 07:23:29;;;;;;;40.58;28.17;;;13.40;99.90;;;;;;4123961;28;20038;-76
2021/10/02 07:25:29;;;;;;;35.05;26.25;;;13.40;99.90;;;;;;4109250;28;20046;-76
2021/10/02 07:27:30;;;;;;;39.67;27.80;;;13.30;99.90;;;;;;4120853;28;20038;-76
2021/10/02 07:29:31;;;;;;;38.40;27.15;;;13.30;99.90;;;;;;4097102;28;20038;-76
2021/10/02 07:31:32;;;;;;;32.35;25.25;;;13.30;99.90;;;;;;4113623;28;20142;-75
2021/10/02 07:33:33;;;;;;;35.65;23.42;;;13.40;99.90;;;;;;4113931;28;20047;-76
2021/10/02 07:35:34;;;;;;;33.97;25.98;;;13.50;99.90;;;;;;4115454;28;20030;-76
2021/10/02 07:37:35;;;;;;;31.40;25.63;;;13.50;99.90;;;;;;4123662;28;20054;-75
2021/10/02 07:39:36;;;;;;;32.08;24.45;;;13.40;99.90;;;;;;4110852;28;20042;-75
2021/10/02 07:41:40;;;;;;;32.92;23.25;;;13.40;99.90;;;;;;4128473;28;20030;-76
2021/10/02 07:43:43;;;;;;;31.85;23.90;;;13.30;99.90;;;;;;4121976;28;20418;-76
2021/10/02 07:45:44;;;;;;;29.75;22.33;;;13.30;99.90;;;;;;4101207;28;20038;-76
2021/10/02 07:47:46;;;;;;;37.15;23.58;;;13.30;99.90;;;;;;4112811;28;20486;-75
2021/10/02 07:49:49;;;;;;;31.15;22.70;;;13.30;99.90;;;;;;4103150;28;20121;-75
2021/10/02 07:51:50;;;;;;;29.13;22.88;;;13.30;99.90;;;;;;4127350;28;20034;-76
2021/10/02 07:53:53;;;;;;;25.02;20.45;;;13.50;99.90;;;;;;4128073;28;20053;-75
2021/10/02 07:55:55;;;;;;;28.77;21.85;;;13.70;99.90;;;;;;4115337;28;20031;-76
2021/10/02 07:57:55;;;;;;;26.40;21.00;;;13.80;99.90;;;;;;4114688;28;20482;-76
2021/10/02 07:59:57;;;;;;;26.77;19.75;;;13.80;99.90;;;;;;4113795;28;20031;-76
2021/10/02 08:01:59;;;;;;;24.70;19.73;;;13.90;99.90;;;;;;4126150;28;20078;-76
2021/10/02 08:04:08;;;;;;;24.50;20.45;;;13.90;99.90;;;;;;4130623;28;20038;-76
2021/10/02 08:06:09;;;;;;;28.45;20.13;;;13.80;99.90;;;;;;4130335;28;20042;-76
2021/10/02 08:08:12;;;;;;;26.85;16.42;;;13.80;99.90;;;;;;4113943;28;20045;-77
2021/10/02 08:10:20;;;;;;;23.70;18.83;;;13.80;99.90;;;;;;4115745;28;20117;-75
2021/10/02 08:12:21;;;;;;;21.85;16.60;;;13.90;99.90;;;;;;4112353;28;20105;-76
2021/10/02 08:14:22;;;;;;;24.30;16.83;;;13.90;99.90;;;;;;4097904;28;20050;-76
2021/10/02 08:16:29;;;;;;;24.35;17.05;;;13.90;99.90;;;;;;4114798;28;20438;-76
2021/10/02 08:18:37;;;;;;;23.35;17.02;;;13.90;99.90;;;;;;4112019;28;20046;-76
2021/10/02 08:20:41;;;;;;;23.60;15.60;;;13.90;99.90;;;;;;4101358;28;20046;-75
2021/10/02 08:22:46;;;;;;;24.75;15.85;;;14.00;99.90;;;;;;4098371;28;20039;-75
2021/10/02 08:24:47;;;;;;;19.48;15.32;;;14.10;99.90;;;;;;4111235;28;20367;-76
2021/10/02 08:26:52;;;;;;;15.32;12.80;;;14.20;99.90;;;;;;4114256;28;20035;-76
2021/10/02 08:28:53;;;;;;;24.25;14.13;;;14.30;99.90;;;;;;4096770;28;20039;-75
2021/10/02 08:30:56;;;;;;;17.88;13.95;;;14.30;99.90;;;;;;4128090;28;20051;-75
2021/10/02 08:32:58;;;;;;;17.25;14.27;;;14.40;99.90;;;;;;4110555;28;20042;-77
2021/10/02 08:34:59;;;;;;;16.17;12.93;;;14.40;99.90;;;;;;4114917;28;20049;-74
2021/10/02 08:37:00;;;;;;;16.08;14.00;;;14.50;99.90;;;;;;4099044;28;20475;-76
2021/10/02 08:39:00;;;;;;;23.48;14.77;;;14.50;99.90;;;;;;4107071;28;20039;-75
2021/10/02 08:41:04;;;;;;;20.13;14.40;;;14.50;99.90;;;;;;4112571;28;20655;-74
2021/10/02 08:43:11;;;;;;;17.63;12.90;;;14.70;99.90;;;;;;4112094;28;20469;-75
2021/10/02 08:45:14;;;;;;;20.48;13.02;;;14.90;99.90;;;;;;4115001;28;20038;-75
2021/10/02 08:47:18;;;;;;;19.02;13.13;;;15.00;99.90;;;;;;4100801;28;20039;-76
2021/10/02 08:49:32;;;;;;;16.83;12.85;;;15.00;99.90;;;;;;4113403;28;20471;-76
2021/10/02 08:51:36;;;;;;;19.33;14.13;;;15.10;99.90;;;;;;4130668;28;20140;-76
2021/10/02 08:53:37;;;;;;;21.02;14.00;;;15.10;99.90;;;;;;4111773;28;20083;-76
2021/10/02 08:55:39;;;;;;;16.20;12.48;;;15.10;99.90;;;;;;4110904;28;20050;-75
2021/10/02 08:57:42;;;;;;;21.53;12.83;;;15.00;99.90;;;;;;4119498;28;20057;-76
2021/10/02 08:59:43;;;;;;;;;;;15.00;99.90;;;;;;4111605;28;20325;-77
2021/10/02 09:01:44;;;;;;;15.02;11.65;;;15.00;99.90;;;;;;4110461;28;20382;-74
2021/10/02 09:03:45;;;;;;;16.05;12.13;;;15.00;99.90;;;;;;4114091;28;20571;-76
2021/10/02 09:05:47;;;;;;;20.00;13.00;;;15.00;99.90;;;;;;4098766;28;20040;-74
2021/10/02 09:07:51;;;;;;;20.83;12.88;;;15.00;99.90;;;;;;4128000;28;20027;-74
2021/10/02 09:09:56;;;;;;;18.70;13.55;;;15.00;99.90;;;;;;4112557;28;20073;-76
2021/10/02 09:11:57;;;;;;;15.32;13.13;;;15.10;99.90;;;;;;4113783;28;20031;-76
2021/10/02 09:13:58;;;;;;;15.10;12.48;;;15.10;99.90;;;;;;4109231;28;20051;-75
2021/10/02 09:15:58;;;;;;;17.40;12.63;;;15.30;99.90;;;;;;4128550;28;20042;-76
2021/10/02 09:18:00;;;;;;;16.70;12.23;;;15.30;99.90;;;;;;4113584;28;20050;-75
2021/10/02 09:20:04;;;;;;;16.63;11.10;;;15.40;99.90;;;;;;4110955;28;20593;-75
2021/10/02 09:22:11;;;;;;;14.85;10.25;;;15.40;99.90;;;;;;4114686;28;20041;-75
2021/10/02 09:24:25;;;;;;;15.52;9.65;;;15.40;99.90;;;;;;4108513;28;20050;-75
2021/10/02 09:26:45;;;;;;;11.60;10.07;;;15.50;99.90;;;;;;4132895;28;20509;-77
2021/10/02 09:28:48;;;;;;;11.73;10.02;;;15.70;99.90;;;;;;4125053;28;20038;-77
2021/10/02 09:30:50;;;;;;;20.25;10.95;;;15.70;99.90;;;;;;4128204;28;20031;-77
2021/10/02 09:33:17;;;;;;;18.52;11.18;;;15.70;99.90;;;;;;4129875;28;20050;-78
2021/10/02 09:35:21;;;;;;;11.90;9.77;;;15.90;99.90;;;;;;4123012;28;20033;-77
2021/10/02 09:37:35;;;;;;;13.35;10.80;;;16.30;99.90;;;;;;4111248;28;20094;-77
2021/10/02 09:39:43;;;;;;;15.32;10.13;;;16.50;99.90;;;;;;4104011;28;20038;-77
2021/10/02 09:41:50;;;;;;;17.83;10.20;;;16.70;99.90;;;;;;4121848;28;20050;-78
2021/10/02 09:43:55;;;;;;;16.17;10.60;;;16.70;99.90;;;;;;4112640;28;20046;-77
2021/10/02 09:45:56;;;;;;;16.15;10.55;;;16.50;99.90;;;;;;4110849;28;20167;-76
2021/10/02 09:48:00;;;;;;;16.73;11.50;;;16.50;99.90;;;;;;4109443;28;20042;-77
2021/10/02 09:50:17;;;;;;;16.20;9.23;;;16.70;99.90;;;;;;4110067;28;20047;-74
2021/10/02 09:52:46;;;;;;;15.52;10.13;;;16.90;99.90;;;;;;4123924;28;20038;-76
2021/10/02 09:54:49;;;;;;;16.85;9.75;;;16.90;99.90;;;;;;4121702;28;20035;-77
2021/10/02 09:57:12;;;;;;;11.65;9.48;;;16.70;99.90;;;;;;4093765;28;20035;-77
2021/10/02 09:59:23;;;;;;;14.48;10.27;;;16.60;99.90;;;;;;4121521;28;20308;-77
2021/10/02 10:01:26;;;;;;;11.68;10.05;;;16.70;99.90;;;;;;4112322;28;20507;-75
2021/10/02 10:03:47;;;;;;;14.48;9.88;;;16.70;99.90;;;;;;4103488;28;20054;-77
2021/10/02 10:05:52;;;;;;;22.67;11.15;;;16.60;99.90;;;;;;4105831;28;20161;-76
2021/10/02 10:07:59;;;;;;;16.67;9.77;;;16.60;99.90;;;;;;4126971;28;20043;-77
2021/10/02 10:10:13;;;;;;;13.32;11.00;;;16.70;99.90;;;;;;4110160;28;20041;-75
2021/10/02 10:12:24;;;;;;;14.10;10.30;;;16.80;99.90;;;;;;4100158;28;20074;-75
2021/10/02 10:14:27;;;;;;;15.65;10.80;;;16.90;99.90;;;;;;4128368;28;20026;-77
2021/10/02 10:16:37;;;;;;;13.15;10.70;;;16.90;99.90;;;;;;4109689;28;20058;-76
2021/10/02 10:18:38;;;;;;;18.33;11.88;;;16.80;99.90;;;;;;4108748;28;20142;-76
2021/10/02 10:20:50;;;;;;;20.50;11.88;;;16.60;99.90;;;;;;4124311;28;20053;-76
2021/10/02 10:22:57;;;;;;;19.33;12.90;;;16.40;99.90;;;;;;4106109;28;20469;-78
2021/10/02 10:25:04;;;;;;;19.58;13.20;;;16.10;99.90;;;;;;4089700;28;20187;-78
2021/10/02 10:27:06;;;;;;;16.65;11.88;;;15.90;99.90;;;;;;4102523;28;20518;-78
2021/10/02 10:29:07;;;;;;;18.92;11.65;;;16.00;99.90;;;;;;4126576;28;20081;-77
2021/10/02 10:31:13;;;;;;;20.02;11.23;;;16.30;99.90;;;;;;4098120;28;20035;-77
2021/10/02 10:33:16;;;;;;;12.18;10.75;;;16.80;99.90;;;;;;4113472;28;20042;-77
2021/10/02 10:35:17;;;;;;;13.30;9.13;;;17.30;99.90;;;;;;4111888;28;20085;-77
2021/10/02 10:37:18;;;;;;;11.98;9.27;;;17.70;99.90;;;;;;4097135;28;20529;-77
2021/10/02 10:39:19;;;;;;;12.90;7.82;;;18.00;99.90;;;;;;4118395;28;20109;-76
2021/10/02 10:41:23;;;;;;;12.50;7.85;;;18.60;99.90;;;;;;4118021;28;20067;-76
2021/10/02 10:43:24;;;;;;;12.07;8.20;;;19.10;99.90;;;;;;4112860;28;20034;-78
2021/10/02 10:45:26;;;;;;;17.42;7.47;;;19.40;99.90;;;;;;4114863;28;20135;-77
2021/10/02 10:47:27;;;;;;;15.07;8.75;;;19.60;99.90;;;;;;4111490;28;20078;-76
2021/10/02 10:49:28;;;;;;;10.70;7.50;;;19.40;99.90;;;;;;4111710;28;20047;-76
2021/10/02 10:51:28;;;;;;;12.85;6.63;;;19.40;99.90;;;;;;4127710;28;20034;-78
2021/10/02 10:53:48;;;;;;;9.82;7.13;;;19.10;99.90;;;;;;4112762;28;20070;-77
2021/10/02 10:55:57;;;;;;;11.00;6.43;;;18.80;99.90;;;;;;4095221;28;20028;-77
2021/10/02 10:58:01;;;;;;;6.85;6.15;;;18.90;99.90;;;;;;4113735;28;20051;-76
2021/10/02 11:00:17;;;;;;;10.88;6.50;;;18.60;99.90;;;;;;4119452;28;20037;-78
2021/10/02 11:03:04;;;;;;;8.73;6.88;;;18.50;99.90;;;;;;4099735;28;20574;-75
2021/10/02 11:05:05;;;;;;;10.80;6.28;;;18.30;99.90;;;;;;4111243;28;20552;-78
2021/10/02 11:07:13;;;;;;;9.50;5.43;;;18.20;99.90;;;;;;4101882;28;20497;-77
2021/10/02 11:09:14;;;;;;;12.18;5.78;;;18.00;99.90;;;;;;4094614;28;20040;-77
2021/10/02 11:11:16;;;;;;;7.03;4.88;;;17.90;99.90;;;;;;4109473;28;20375;-76
2021/10/02 11:13:31;;;;;;;10.15;5.90;;;17.90;99.90;;;;;;4101222;28;20367;-78
2021/10/02 11:15:32;;;;;;;8.50;5.63;;;17.70;99.90;;;;;;4108527;28;20042;-77
2021/10/02 11:17:44;;;;;;;9.60;4.82;;;17.50;99.90;;;;;;4128296;28;20046;-79
2021/10/02 11:19:45;;;;;;;6.97;4.65;;;17.40;99.90;;;;;;4126002;28;20603;-79
2021/10/02 11:22:57;;;;;;;5.10;3.50;;;17.50;99.90;;;;;;4111127;28;20030;-78
2021/10/02 11:24:59;;;;;;;7.43;4.15;;;17.60;99.90;;;;;;4049550;28;20076;-79
2021/10/02 11:26:59;;;;;;;9.90;4.45;;;17.70;99.90;;;;;;4122162;28;20739;-79
2021/10/02 11:29:00;;;;;;;8.40;4.45;;;17.60;99.90;;;;;;4112529;28;20047;-76
2021/10/02 11:31:16;;;;;;;7.03;4.50;;;17.50;99.90;;;;;;4113757;28;20387;-77